Aérodrome :
LOGIN :

S'inscrire | Disclaimer

   EN    FR    IT 

 










Légende :    VFR   VFR Marginal   IFR   IFR Intensif   IFR Très Intensif
Visi : 
Plafond : 
>= 8 km
>= 3000ft
5 à 8 km
1000 à 3000 ft
1500m à 5 km
500 à 1000 ft
800 à 1500m
200 à 500 ft
< 800m
< 200 ft
Symboles :   Orages  Brouillard  Fortes neiges  Fortes précipitations  Vent > 20 kt
SIGMETs :   Divers  Orages  Givrage  Turbulence  Onde Orograph.  Cendres Volcan.







- Altitude de l'aérodrome : 370 ft


EBBE - Beauvechain AB

DERNIER METAR :
  • 172225Z AUTO 34003KT 9999 OVC024/// 13/11 Q1022 WHT

METARs EXPIRÉS :
  • 172155Z AUTO 36003KT 9999 BKN024/// 13/11 Q1022 WHT
  • 172125Z AUTO 01003KT 9999 FEW021/// SCT026/// 13/11 Q1022 BLU
  • 172055Z AUTO 36004KT 9999 NCD 13/11 Q1022 BLU
  • 172025Z AUTO 36005KT 9999 NCD 13/11 Q1021 BLU
  • 171955Z AUTO 36004KT 9000 NCD 13/12 Q1021 BLU
  • 171925Z AUTO 36004KT 9000 NCD 14/12 Q1021 BLU

TAF TAF EBBE
Valide du 17 à 19h jusqu'au 18 à 07h UTC


171541Z 1719/1807 01005KT 9999 SCT200
BECMG 1722/1800 8000 SCT020 SCT200
BECMG 1802/1804 4000 BR FEW003 SCT004
Pas de NOTAMs connus pour ce terrain.



MET'MAP, la Météo Aéronautique d'un coup d'oeil ! - Copyright ORBIFLY Décembre 2007 - Disclaimer

ORBIFLY MET'MAP TEAM :

Programmation & Développement : Alexandra Zaïnal
Conception & Développement : Baudouin d'Aumeries
Co-Programmation & Développement : Marc-Olivier Méhu
Soutien technique & logistique : Manuel Goepfert

Contact : metmap@orbifly.com




SOURCES & CREDITS :

   NOAA